createdAt,value
2022-10-28T00:02:29.645Z,5.85
2022-10-28T00:07:31.673Z,5.80
2022-10-28T00:12:37.852Z,6.13
2022-10-28T00:17:39.889Z,6.18
2022-10-28T00:22:42.512Z,6.07
2022-10-28T00:27:44.516Z,6.90
2022-10-28T00:32:46.529Z,6.35
2022-10-28T00:37:48.557Z,6.63
2022-10-28T00:42:51.784Z,6.95
2022-10-28T00:47:57.534Z,6.43
2022-10-28T00:53:07.678Z,7.13
2022-10-28T00:58:10.852Z,6.13
2022-10-28T01:03:12.845Z,6.15
2022-10-28T01:08:16.011Z,7.15
2022-10-28T01:13:33.217Z,6.80
2022-10-28T01:18:46.030Z,6.20
2022-10-28T01:24:15.399Z,6.55
2022-10-28T01:29:53.735Z,6.43
2022-10-28T01:35:09.300Z,6.75
2022-10-28T01:40:20.251Z,5.80
2022-10-28T01:45:30.580Z,5.78
2022-10-28T01:50:39.065Z,5.70
2022-10-28T01:55:45.628Z,6.03
2022-10-28T02:00:49.045Z,5.90
2022-10-28T02:05:56.549Z,5.38
2022-10-28T02:11:08.240Z,5.90
2022-10-28T02:16:29.130Z,5.88
2022-10-28T02:21:42.715Z,5.97
2022-10-28T02:26:53.800Z,5.45
2022-10-28T02:32:00.037Z,6.40
2022-10-28T02:37:08.485Z,5.40
2022-10-28T02:42:22.353Z,5.13
2022-10-28T02:47:28.823Z,4.70
2022-10-28T02:52:33.388Z,4.85
2022-10-28T02:57:40.032Z,5.25
2022-10-28T03:02:42.175Z,4.50
2022-10-28T03:07:44.180Z,5.00
2022-10-28T03:12:46.301Z,5.00
2022-10-28T03:17:48.389Z,4.63
2022-10-28T03:22:50.607Z,4.85
2022-10-28T03:27:57.801Z,5.20
2022-10-28T03:32:59.847Z,4.72
2022-10-28T03:38:01.983Z,4.50
2022-10-28T03:43:04.028Z,4.82
2022-10-28T03:48:06.584Z,4.85
2022-10-28T03:53:08.790Z,4.93
2022-10-28T03:58:10.990Z,4.32
2022-10-28T04:03:12.979Z,4.53
2022-10-28T04:08:16.189Z,5.00
2022-10-28T04:13:18.217Z,5.07
2022-10-28T04:18:20.264Z,5.20
2022-10-28T04:23:22.433Z,4.95
2022-10-28T04:28:24.545Z,4.60
2022-10-28T04:33:26.684Z,4.90
2022-10-28T04:38:28.703Z,5.03
2022-10-28T04:43:30.762Z,4.90
2022-10-28T04:48:37.148Z,4.75
2022-10-28T04:53:39.205Z,5.10
2022-10-28T04:58:41.406Z,4.78
2022-10-28T05:03:43.426Z,5.20
2022-10-28T05:08:45.540Z,4.53
2022-10-28T05:13:47.572Z,4.40
2022-10-28T05:18:49.644Z,4.68
2022-10-28T05:23:51.736Z,4.90
2022-10-28T05:28:53.903Z,4.85
2022-10-28T05:33:56.160Z,4.90
2022-10-28T05:38:58.295Z,4.50
2022-10-28T05:44:00.356Z,5.07
2022-10-28T05:49:02.458Z,5.55
2022-10-28T05:54:04.749Z,5.47
2022-10-28T05:59:06.876Z,5.78
2022-10-28T06:04:09.090Z,6.15
2022-10-28T06:09:11.163Z,4.88
2022-10-28T06:14:11.686Z,4.95
2022-10-28T06:19:13.678Z,5.00
2022-10-28T06:24:15.868Z,5.40
2022-10-28T06:29:18.939Z,4.88
2022-10-28T06:34:20.908Z,6.20
2022-10-28T06:39:22.973Z,5.15
2022-10-28T06:44:25.014Z,5.53
2022-10-28T06:49:28.792Z,5.93
2022-10-28T06:54:30.816Z,5.65
2022-10-28T06:59:32.962Z,5.57
2022-10-28T07:04:35.039Z,5.93
2022-10-28T07:09:39.479Z,4.70
2022-10-28T07:14:41.478Z,5.35
2022-10-28T07:19:43.861Z,5.72
2022-10-28T07:24:45.883Z,4.88
2022-10-28T07:29:47.911Z,4.85
2022-10-28T07:34:50.070Z,5.50
2022-10-28T07:39:52.210Z,4.97
2022-10-28T07:44:54.197Z,4.78
2022-10-28T07:49:56.263Z,5.13
2022-10-28T07:54:58.336Z,5.15
2022-10-28T08:00:00.460Z,4.78
2022-10-28T08:05:02.604Z,4.50
2022-10-28T08:10:05.200Z,5.78
2022-10-28T08:15:10.238Z,4.63
2022-10-28T08:20:12.444Z,4.22
2022-10-28T08:25:14.869Z,4.78
2022-10-28T08:30:16.968Z,4.53
2022-10-28T08:35:18.957Z,4.85
2022-10-28T08:40:35.563Z,4.50
2022-10-28T08:46:02.537Z,4.40
2022-10-28T08:51:14.182Z,5.07
2022-10-28T08:56:34.712Z,3.90
2022-10-28T09:01:56.908Z,4.10
2022-10-28T09:06:59.317Z,4.30
2022-10-28T09:12:19.929Z,4.68
2022-10-28T09:17:47.859Z,4.67
2022-10-28T09:22:59.922Z,4.18
2022-10-28T09:28:10.022Z,4.53
2022-10-28T09:33:27.181Z,4.72
2022-10-28T09:38:37.665Z,4.43
2022-10-28T09:43:53.223Z,4.10
2022-10-28T09:48:59.730Z,4.82
2022-10-28T09:54:02.064Z,4.53
2022-10-28T09:59:04.637Z,4.55
2022-10-28T10:04:21.134Z,3.85
2022-10-28T10:09:30.615Z,4.50
2022-10-28T10:14:49.901Z,4.53
2022-10-28T10:20:16.334Z,3.83
2022-10-28T10:25:21.075Z,4.30
2022-10-28T10:30:31.219Z,4.03
2022-10-28T10:35:35.230Z,4.18
2022-10-28T10:40:49.061Z,3.70
2022-10-28T10:46:06.333Z,4.28
2022-10-28T10:51:09.704Z,4.22
2022-10-28T10:56:13.232Z,3.85
2022-10-28T11:01:21.088Z,3.70
2022-10-28T11:06:28.938Z,3.38
2022-10-28T11:11:33.299Z,3.55
2022-10-28T11:16:58.302Z,3.90
2022-10-28T11:22:21.526Z,3.53
2022-10-28T11:27:42.588Z,3.97
2022-10-28T11:33:28.300Z,4.07
2022-10-28T11:38:45.547Z,3.65
2022-10-28T11:43:55.398Z,3.67
2022-10-28T11:49:30.668Z,3.50
2022-10-28T11:54:57.832Z,3.15
2022-10-28T12:00:27.418Z,3.90
2022-10-28T12:06:11.709Z,4.50
2022-10-28T12:11:28.585Z,4.05
2022-10-28T12:16:41.512Z,3.92
2022-10-28T12:22:01.183Z,4.50
2022-10-28T12:27:34.039Z,3.80
2022-10-28T12:32:37.891Z,3.70
2022-10-28T12:37:52.683Z,3.70
2022-10-28T12:43:18.780Z,3.67
2022-10-28T12:48:31.839Z,3.78
2022-10-28T12:53:44.736Z,3.55
2022-10-28T13:04:12.870Z,3.60
2022-10-28T13:09:44.393Z,3.67
2022-10-28T13:15:17.415Z,3.60
2022-10-28T13:20:28.448Z,3.70
2022-10-28T13:25:40.091Z,3.53
2022-10-28T13:30:57.344Z,3.38
2022-10-28T13:36:30.339Z,4.32
2022-10-28T13:41:37.969Z,3.55
2022-10-28T13:47:15.155Z,3.80
2022-10-28T13:52:21.415Z,3.92
2022-10-28T13:57:31.755Z,3.35
2022-10-28T14:02:46.178Z,3.65
2022-10-28T14:07:53.674Z,3.63
2022-10-28T14:13:00.699Z,3.83
2022-10-28T14:18:42.604Z,3.50
2022-10-28T14:23:44.639Z,4.00
2022-10-28T14:28:51.937Z,3.70
2022-10-28T14:33:53.952Z,3.97
2022-10-28T14:39:32.679Z,3.85
2022-10-28T14:45:03.178Z,3.20
2022-10-28T14:50:16.359Z,3.63
2022-10-28T14:55:25.817Z,3.55
2022-10-28T15:00:29.372Z,3.30
2022-10-28T15:05:32.358Z,4.90
2022-10-28T15:10:34.634Z,5.10
2022-10-28T15:15:36.631Z,4.38
2022-10-28T15:20:38.664Z,3.80
2022-10-28T15:25:40.672Z,3.80
2022-10-28T15:30:46.352Z,3.80
2022-10-28T15:35:49.022Z,4.25
2022-10-28T15:40:51.837Z,4.28
2022-10-28T15:45:54.529Z,4.32
2022-10-28T15:51:13.366Z,3.97
2022-10-28T15:56:15.353Z,3.72
2022-10-28T16:01:26.770Z,4.00
2022-10-28T16:06:31.621Z,4.18
2022-10-28T16:11:36.359Z,3.60
2022-10-28T16:16:38.478Z,7.93
2022-10-28T16:21:40.574Z,4.55
2022-10-28T16:26:42.730Z,4.38
2022-10-28T16:31:48.720Z,4.45
2022-10-28T16:36:50.684Z,4.03
2022-10-28T16:41:56.670Z,5.95
2022-10-28T16:46:58.687Z,5.30
2022-10-28T16:52:02.892Z,4.57
2022-10-28T16:57:04.883Z,6.30
2022-10-28T17:02:15.395Z,5.93
2022-10-28T17:07:18.343Z,6.18
2022-10-28T17:12:22.879Z,6.07
2022-10-28T17:17:24.995Z,5.97
2022-10-28T17:22:27.506Z,6.20
2022-10-28T17:27:29.782Z,8.50
2022-10-28T17:32:31.764Z,8.82
2022-10-28T17:37:33.817Z,7.55
2022-10-28T17:42:35.809Z,5.82
2022-10-28T17:47:37.789Z,5.57
2022-10-28T17:52:39.758Z,7.65
2022-10-28T17:57:44.434Z,9.00
2022-10-28T18:02:46.584Z,8.15
2022-10-28T18:07:48.864Z,7.90
2022-10-28T18:12:52.018Z,7.45
2022-10-28T18:17:54.331Z,6.72
2022-10-28T18:22:56.785Z,6.10
2022-10-28T18:27:59.153Z,6.15
2022-10-28T18:33:01.253Z,7.00
2022-10-28T18:38:03.253Z,8.88
2022-10-28T18:43:05.246Z,8.30
2022-10-28T18:48:07.459Z,8.20
2022-10-28T18:53:09.602Z,9.35
2022-10-28T18:58:14.290Z,9.15
2022-10-28T19:03:21.816Z,8.68
2022-10-28T19:08:24.822Z,9.77
2022-10-28T19:13:32.587Z,10.02
2022-10-28T19:18:38.153Z,11.30
2022-10-28T19:23:40.996Z,9.30
2022-10-28T19:28:46.182Z,7.93
2022-10-28T19:33:49.269Z,8.40
2022-10-28T19:38:53.629Z,8.30
2022-10-28T19:44:01.023Z,8.25
2022-10-28T19:49:05.671Z,8.77
2022-10-28T19:54:11.265Z,7.80
2022-10-28T19:59:13.463Z,7.15
2022-10-28T20:04:17.351Z,7.55
2022-10-28T20:09:19.711Z,7.75
2022-10-28T20:14:21.821Z,7.60
2022-10-28T20:19:24.042Z,6.97
2022-10-28T20:24:26.375Z,7.93
2022-10-28T20:29:28.379Z,7.25
2022-10-28T20:34:30.385Z,7.13
2022-10-28T20:39:32.422Z,7.20
2022-10-28T20:44:34.402Z,7.38
2022-10-28T20:49:36.354Z,8.27
2022-10-28T20:54:38.320Z,7.20
2022-10-28T20:59:40.307Z,7.13
2022-10-28T21:04:42.307Z,7.22
2022-10-28T21:09:44.417Z,7.68
2022-10-28T21:14:46.418Z,8.18
2022-10-28T21:19:48.551Z,7.32
2022-10-28T21:24:50.595Z,6.63
2022-10-28T21:29:53.036Z,6.75
2022-10-28T21:34:55.036Z,6.25
2022-10-28T21:40:01.003Z,6.90
2022-10-28T21:45:03.625Z,6.70
2022-10-28T21:50:05.787Z,7.18
2022-10-28T21:55:20.087Z,8.38
2022-10-28T22:00:22.875Z,8.75
2022-10-28T22:05:24.843Z,9.50
2022-10-28T22:10:26.942Z,10.20
2022-10-28T22:15:28.947Z,9.55
2022-10-28T22:20:31.162Z,8.73
2022-10-28T22:25:33.215Z,7.35
2022-10-28T22:30:35.192Z,8.20
2022-10-28T22:35:37.171Z,8.32
2022-10-28T22:40:39.230Z,8.00
2022-10-28T22:45:41.211Z,7.93
2022-10-28T22:50:43.202Z,8.13
2022-10-28T22:55:46.951Z,7.45
2022-10-28T23:00:49.327Z,7.53
2022-10-28T23:05:51.285Z,7.80
2022-10-28T23:10:53.234Z,8.13
2022-10-28T23:15:55.281Z,7.95
2022-10-28T23:20:57.426Z,7.25
2022-10-28T23:25:59.407Z,7.78
2022-10-28T23:31:02.938Z,8.63
2022-10-28T23:36:05.139Z,7.60
2022-10-28T23:41:09.946Z,7.45
2022-10-28T23:46:12.462Z,7.85
2022-10-28T23:51:14.514Z,8.05
2022-10-28T23:56:16.531Z,7.95
